Archival Weather

Chicago O'hare International

Chicago O'hare International, Illinois (KORD)

Report from: Saturday, May 14, 2022 2:51 AM CDT
Current time: Monday, May 23, 2022 2:49 AM CDT

Current weather
Weather history
Weather forecast

Temperature20.0°C (68.0°F)
Dew point14.4°C (57.9°F)
Winds 3 kts (1.5 m/s, 3.5 mph) West (270°)
Visibility10 mi. (16.1 km)
Clouds Few clouds 9,000 ft. (2,743 m)
Ceiling: Broken clouds 25,000 ft. (7,620 m)
Altimeter29.89 in.Hg (1012 mB)
Relative humidity70 %
Density altitude848 ft. (259 m)
Sea-level pressure101.2 kPa (1012 mB, 29.88 in.Hg)
Remarks Automated weather observing station with precipitation discriminator
Flight conditions Visual Meteorological Conditions
Raw dataKORD 140751Z 27003KT 10SM FEW090 BKN250 20/14 A2989 RMK AO2 SLP117 T02000144
An error has occurred. This application may no longer respond until reloaded. Reload 🗙